createdAt,value
2018-08-20T00:01:37.782Z,76.60
2018-08-20T00:04:10.124Z,76.80
2018-08-20T00:06:51.344Z,77.00
2018-08-20T00:09:22.063Z,77.00
2018-08-20T00:11:51.006Z,77.10
2018-08-20T00:14:21.823Z,77.20
2018-08-20T00:16:50.678Z,77.60
2018-08-20T00:19:19.586Z,77.80
2018-08-20T00:21:48.437Z,78.00
2018-08-20T00:24:17.302Z,78.30
2018-08-20T00:26:46.127Z,78.50
2018-08-20T00:29:14.932Z,78.60
2018-08-20T00:31:43.723Z,78.90
2018-08-20T00:34:12.748Z,78.80
2018-08-20T00:36:41.793Z,78.70
2018-08-20T00:39:11.612Z,78.70
2018-08-20T00:41:40.457Z,78.60
2018-08-20T00:44:16.203Z,78.60
2018-08-20T00:46:45.926Z,78.70
2018-08-20T00:49:16.117Z,79.00
2018-08-20T00:51:45.420Z,79.10
2018-08-20T00:54:14.417Z,79.40
2018-08-20T00:56:43.346Z,79.40
2018-08-20T00:59:12.242Z,79.60
2018-08-20T01:01:41.292Z,80.00
2018-08-20T01:04:10.076Z,80.40
2018-08-20T01:06:38.921Z,80.50
2018-08-20T01:09:08.364Z,80.70
2018-08-20T01:11:37.434Z,80.90
2018-08-20T01:14:06.303Z,80.80
2018-08-20T01:16:35.200Z,81.00
2018-08-20T01:19:04.046Z,81.00
2018-08-20T01:21:33.015Z,80.80
2018-08-20T01:24:01.868Z,81.20
2018-08-20T01:26:30.669Z,81.20
2018-08-20T01:28:59.466Z,81.10
2018-08-20T01:31:28.474Z,81.10
2018-08-20T01:33:57.272Z,81.20
2018-08-20T01:36:26.133Z,81.10
2018-08-20T01:38:54.945Z,81.20
2018-08-20T01:41:24.688Z,81.40
2018-08-20T01:43:53.465Z,81.50
2018-08-20T01:46:22.303Z,81.70
2018-08-20T01:48:51.326Z,81.90
2018-08-20T01:51:20.343Z,81.90
2018-08-20T01:53:49.234Z,81.80
2018-08-20T01:56:18.124Z,81.70
2018-08-20T01:58:46.922Z,81.80
2018-08-20T02:01:15.725Z,81.90
2018-08-20T02:03:44.591Z,81.60
2018-08-20T02:06:13.443Z,81.60
2018-08-20T02:08:42.248Z,81.70
2018-08-20T02:11:11.332Z,81.60
2018-08-20T02:13:40.384Z,81.40
2018-08-20T02:16:10.195Z,81.40
2018-08-20T02:18:39.146Z,81.10
2018-08-20T02:21:08.058Z,80.70
2018-08-20T02:23:36.877Z,80.70
2018-08-20T02:26:05.773Z,80.40
2018-08-20T02:28:34.664Z,80.30
2018-08-20T02:31:03.437Z,80.10
2018-08-20T02:33:32.280Z,80.10
2018-08-20T02:36:01.013Z,80.20
2018-08-20T02:38:30.538Z,80.40
2018-08-20T02:40:59.505Z,80.50
2018-08-20T02:43:28.421Z,80.40
2018-08-20T02:45:57.256Z,80.50
2018-08-20T02:48:26.295Z,80.80
2018-08-20T02:50:55.290Z,80.70
2018-08-20T02:53:24.151Z,81.00
2018-08-20T02:55:52.964Z,81.20
2018-08-20T02:58:21.774Z,81.20
2018-08-20T03:00:50.704Z,81.40
2018-08-20T03:03:19.540Z,81.80
2018-08-20T03:05:48.412Z,81.80
2018-08-20T03:08:17.382Z,82.00
2018-08-20T03:10:46.144Z,82.10
2018-08-20T03:13:14.985Z,82.40
2018-08-20T03:15:43.788Z,82.60
2018-08-20T03:18:12.628Z,83.00
2018-08-20T03:20:41.553Z,83.30
2018-08-20T03:23:10.403Z,83.50
2018-08-20T03:25:39.186Z,83.50
2018-08-20T03:28:08.186Z,83.80
2018-08-20T03:30:37.115Z,83.90
2018-08-20T03:33:06.070Z,84.20
2018-08-20T03:35:35.103Z,84.30
2018-08-20T03:38:03.956Z,84.60
2018-08-20T03:40:32.832Z,84.60
2018-08-20T03:43:01.663Z,84.70
2018-08-20T03:45:30.415Z,84.80
2018-08-20T03:47:59.278Z,85.30
2018-08-20T03:50:28.089Z,85.00
2018-08-20T03:52:56.892Z,84.90
2018-08-20T03:55:28.657Z,84.90
2018-08-20T03:57:57.554Z,84.90
2018-08-20T04:00:26.369Z,84.90
2018-08-20T04:02:55.392Z,84.80
2018-08-20T04:05:27.165Z,84.50
2018-08-20T04:07:56.303Z,84.60
2018-08-20T04:10:25.275Z,84.80
2018-08-20T04:12:54.050Z,84.90
2018-08-20T04:15:22.854Z,85.00
2018-08-20T04:17:51.734Z,84.90
2018-08-20T04:20:21.557Z,84.90
2018-08-20T04:22:50.431Z,85.20
2018-08-20T04:25:19.225Z,85.20
2018-08-20T04:27:48.053Z,85.30
2018-08-20T04:30:16.909Z,85.40
2018-08-20T04:32:45.694Z,85.60
2018-08-20T04:35:14.525Z,85.90
2018-08-20T04:37:43.373Z,85.90
2018-08-20T04:40:12.243Z,86.10
2018-08-20T04:42:41.010Z,86.20
2018-08-20T04:45:10.238Z,86.50
2018-08-20T04:47:39.357Z,86.60
2018-08-20T04:50:10.424Z,86.60
2018-08-20T04:52:39.886Z,86.60
2018-08-20T04:55:08.968Z,86.80
2018-08-20T04:57:38.157Z,87.00
2018-08-20T05:00:08.916Z,87.10
2018-08-20T05:02:37.759Z,87.10
2018-08-20T05:05:06.653Z,87.20
2018-08-20T05:07:35.878Z,87.20
2018-08-20T05:10:05.053Z,87.30
2018-08-20T05:12:33.961Z,87.50
2018-08-20T05:15:02.765Z,87.60
2018-08-20T05:17:31.599Z,87.60
2018-08-20T05:20:00.515Z,87.60
2018-08-20T05:22:29.468Z,87.70
2018-08-20T05:24:58.374Z,87.90
2018-08-20T05:27:27.277Z,87.90
2018-08-20T05:29:56.157Z,87.80
2018-08-20T05:32:24.974Z,87.70
2018-08-20T05:34:54.159Z,87.70
2018-08-20T05:37:22.987Z,87.70
2018-08-20T05:39:51.973Z,87.50
2018-08-20T05:42:21.046Z,87.40
2018-08-20T05:44:49.949Z,87.40
2018-08-20T05:47:18.774Z,87.20
2018-08-20T05:49:47.803Z,87.10
2018-08-20T05:52:16.645Z,87.30
2018-08-20T05:54:45.506Z,87.40
2018-08-20T05:57:14.406Z,87.40
2018-08-20T05:59:43.309Z,87.40
2018-08-20T06:02:12.209Z,87.40
2018-08-20T06:04:41.034Z,87.40
2018-08-20T06:07:09.881Z,87.50
2018-08-20T06:09:38.873Z,87.70
2018-08-20T06:12:07.933Z,87.60
2018-08-20T06:14:36.715Z,87.90
2018-08-20T06:17:05.978Z,87.50
2018-08-20T06:19:35.136Z,87.60
2018-08-20T06:22:03.945Z,87.50
2018-08-20T06:24:33.089Z,87.30
2018-08-20T06:27:01.958Z,87.40
2018-08-20T06:29:31.119Z,87.20
2018-08-20T06:32:00.006Z,86.30
2018-08-20T06:34:28.854Z,85.80
2018-08-20T06:36:57.867Z,85.30
2018-08-20T06:39:26.781Z,84.10
2018-08-20T06:41:56.427Z,83.20
2018-08-20T06:44:25.407Z,83.10
2018-08-20T06:46:54.346Z,82.40
2018-08-20T06:49:23.319Z,81.50
2018-08-20T06:51:52.185Z,81.10
2018-08-20T06:54:21.048Z,80.70
2018-08-20T06:56:50.153Z,80.50
2018-08-20T06:59:19.015Z,80.80
2018-08-20T07:01:48.038Z,79.90
2018-08-20T07:04:17.048Z,80.00
2018-08-20T07:06:46.011Z,79.80
2018-08-20T07:09:14.957Z,79.60
2018-08-20T07:11:44.029Z,79.70
2018-08-20T07:14:12.980Z,79.90
2018-08-20T07:16:41.740Z,79.90
2018-08-20T07:19:10.744Z,79.60
2018-08-20T07:21:39.524Z,79.70
2018-08-20T07:24:08.714Z,79.40
2018-08-20T07:26:37.515Z,79.60
2018-08-20T07:29:06.273Z,79.40
2018-08-20T07:31:35.352Z,79.10
2018-08-20T07:34:04.181Z,79.10
2018-08-20T07:36:32.918Z,78.90
2018-08-20T07:39:01.651Z,78.60
2018-08-20T07:41:30.472Z,78.90
2018-08-20T07:43:59.268Z,78.70
2018-08-20T07:46:28.130Z,78.00
2018-08-20T07:49:03.643Z,77.80
2018-08-20T07:51:34.940Z,77.80
2018-08-20T07:54:04.129Z,77.70
2018-08-20T07:56:34.387Z,77.50
2018-08-20T07:59:03.488Z,77.40
2018-08-20T08:01:32.458Z,77.10
2018-08-20T08:04:01.545Z,77.00
2018-08-20T08:06:30.692Z,76.30
2018-08-20T08:08:59.851Z,76.10
2018-08-20T08:11:29.110Z,75.60
2018-08-20T08:13:58.127Z,75.70
2018-08-20T08:16:27.063Z,75.80
2018-08-20T08:18:56.039Z,76.30
2018-08-20T08:21:24.998Z,76.10
2018-08-20T08:23:54.012Z,75.80
2018-08-20T08:26:22.931Z,75.90
2018-08-20T08:28:53.694Z,76.20
2018-08-20T08:31:23.018Z,76.20
2018-08-20T08:33:52.090Z,75.90
2018-08-20T08:36:21.007Z,76.00
2018-08-20T08:38:50.628Z,75.90
2018-08-20T08:41:19.830Z,75.90
2018-08-20T08:43:49.494Z,75.70
2018-08-20T08:46:18.452Z,75.30
2018-08-20T08:48:47.396Z,74.90
2018-08-20T08:51:17.404Z,74.60
2018-08-20T08:53:46.278Z,74.90
2018-08-20T08:56:15.282Z,74.50
2018-08-20T08:58:45.196Z,74.20
2018-08-20T09:01:14.171Z,74.20
2018-08-20T09:03:43.241Z,74.50
2018-08-20T09:06:12.150Z,74.20
2018-08-20T09:08:41.068Z,73.60
2018-08-20T09:11:12.429Z,73.50
2018-08-20T09:13:43.974Z,73.50
2018-08-20T09:16:16.256Z,73.40
2018-08-20T09:18:45.500Z,73.20
2018-08-20T09:21:20.917Z,72.50
2018-08-20T09:23:50.074Z,72.60
2018-08-20T09:26:19.237Z,72.50
2018-08-20T09:28:54.851Z,72.10
2018-08-20T09:31:24.189Z,72.20
2018-08-20T09:33:53.108Z,71.80
2018-08-20T09:36:22.431Z,71.80
2018-08-20T09:38:52.119Z,71.90
2018-08-20T09:41:21.086Z,71.60
2018-08-20T09:43:50.164Z,71.10
2018-08-20T09:46:19.341Z,71.00
2018-08-20T09:48:48.174Z,71.30
2018-08-20T09:51:17.046Z,71.30
2018-08-20T09:53:46.436Z,70.50
2018-08-20T09:56:22.390Z,69.60
2018-08-20T09:58:51.293Z,68.80
2018-08-20T10:01:20.196Z,69.00
2018-08-20T10:03:48.974Z,69.30
2018-08-20T10:06:18.080Z,69.00
2018-08-20T10:08:47.114Z,69.30
2018-08-20T10:11:16.443Z,68.70
2018-08-20T10:13:45.631Z,68.90
2018-08-20T10:16:14.757Z,69.50
2018-08-20T10:18:43.538Z,70.10
2018-08-20T10:21:12.448Z,70.50
2018-08-20T10:23:41.206Z,71.20
2018-08-20T10:26:10.274Z,72.10
2018-08-20T10:28:39.030Z,73.10
2018-08-20T10:31:07.851Z,74.00
2018-08-20T10:33:36.638Z,75.40
2018-08-20T10:36:05.787Z,76.20
2018-08-20T10:38:34.788Z,76.80
2018-08-20T10:41:03.640Z,78.10
2018-08-20T10:43:32.556Z,79.60
2018-08-20T10:46:06.692Z,80.60
2018-08-20T10:48:35.451Z,82.10
2018-08-20T10:51:04.306Z,82.60
2018-08-20T10:53:33.038Z,84.00
2018-08-20T10:56:02.064Z,84.60
2018-08-20T10:58:31.032Z,83.60
2018-08-20T11:00:59.781Z,83.50
2018-08-20T11:03:28.567Z,83.30
2018-08-20T11:05:57.359Z,82.60
2018-08-20T11:08:26.431Z,81.70
2018-08-20T11:10:55.335Z,82.00
2018-08-20T11:13:24.366Z,80.70
2018-08-20T11:15:53.156Z,80.90
2018-08-20T11:18:22.152Z,80.70
2018-08-20T11:20:53.222Z,81.00
2018-08-20T11:23:22.218Z,80.70
2018-08-20T11:25:51.378Z,80.40
2018-08-20T11:28:21.245Z,80.00
2018-08-20T11:30:50.196Z,79.50
2018-08-20T11:33:19.142Z,78.60
2018-08-20T11:35:47.905Z,78.00
2018-08-20T11:38:16.740Z,77.80
2018-08-20T11:40:45.568Z,77.80
2018-08-20T11:43:14.497Z,76.90
2018-08-20T11:45:43.276Z,76.80
2018-08-20T11:48:12.516Z,76.70
2018-08-20T11:50:41.656Z,76.80
2018-08-20T11:53:10.646Z,76.50
2018-08-20T11:55:39.490Z,76.80
2018-08-20T11:58:08.347Z,77.30
2018-08-20T12:00:37.278Z,78.00
2018-08-20T12:03:07.181Z,78.90
2018-08-20T12:05:36.082Z,79.70
2018-08-20T12:08:05.013Z,79.60
2018-08-20T12:10:33.871Z,79.80
2018-08-20T12:13:02.750Z,80.40
2018-08-20T12:15:31.536Z,80.40
2018-08-20T12:18:00.522Z,80.50
2018-08-20T12:20:29.274Z,80.90
2018-08-20T12:22:58.036Z,80.80
2018-08-20T12:25:26.802Z,80.50
2018-08-20T12:27:55.605Z,79.10
2018-08-20T12:30:24.331Z,78.90
2018-08-20T12:32:55.212Z,79.00
2018-08-20T12:35:24.417Z,78.80
2018-08-20T12:37:53.332Z,79.50
2018-08-20T12:40:22.342Z,80.10
2018-08-20T12:42:51.161Z,80.10
2018-08-20T12:45:20.009Z,80.40
2018-08-20T12:47:48.917Z,80.60
2018-08-20T12:50:17.713Z,80.50
2018-08-20T12:52:46.658Z,79.40
2018-08-20T12:55:15.537Z,78.90
2018-08-20T12:57:44.284Z,77.00
2018-08-20T13:00:13.125Z,76.90
2018-08-20T13:02:42.036Z,75.10
2018-08-20T13:05:10.862Z,75.00
2018-08-20T13:07:39.627Z,71.70
2018-08-20T13:10:08.668Z,69.80
2018-08-20T13:12:37.478Z,68.60
2018-08-20T13:15:07.252Z,68.00
2018-08-20T13:17:36.143Z,67.60
2018-08-20T13:20:05.331Z,66.70
2018-08-20T13:22:34.142Z,66.80
2018-08-20T13:25:03.001Z,67.60
2018-08-20T13:27:31.974Z,66.30
2018-08-20T13:30:01.065Z,66.80
2018-08-20T13:32:29.966Z,67.90
2018-08-20T13:34:58.832Z,67.80
2018-08-20T13:37:27.682Z,67.80
2018-08-20T13:39:56.597Z,68.80
2018-08-20T13:42:25.413Z,69.50
2018-08-20T13:44:54.653Z,70.10
2018-08-20T13:47:23.440Z,71.00
2018-08-20T13:49:55.250Z,72.00
2018-08-20T13:52:23.886Z,72.20
2018-08-20T13:54:52.617Z,72.60
2018-08-20T13:57:21.482Z,73.00
2018-08-20T13:59:50.461Z,72.20
2018-08-20T14:02:19.225Z,72.50
2018-08-20T14:04:49.853Z,72.70
2018-08-20T14:07:18.644Z,71.60
2018-08-20T14:09:47.513Z,70.90
2018-08-20T14:12:16.283Z,68.90
2018-08-20T14:14:45.051Z,66.70
2018-08-20T14:17:13.965Z,66.40
2018-08-20T14:19:42.975Z,66.00
2018-08-20T14:22:11.754Z,65.30
2018-08-20T14:24:40.728Z,64.20
2018-08-20T14:27:09.479Z,64.10
2018-08-20T14:29:38.626Z,64.10
2018-08-20T14:32:07.650Z,64.00
2018-08-20T14:34:36.458Z,64.00
2018-08-20T14:37:11.847Z,64.80
2018-08-20T14:39:40.749Z,66.20
2018-08-20T14:42:09.813Z,66.30
2018-08-20T14:44:38.595Z,66.10
2018-08-20T14:47:07.401Z,66.60
2018-08-20T14:49:36.325Z,67.10
2018-08-20T14:52:05.091Z,67.90
2018-08-20T14:54:33.858Z,69.00
2018-08-20T14:57:03.300Z,69.10
2018-08-20T14:59:32.401Z,68.30
2018-08-20T15:02:01.499Z,65.80
2018-08-20T15:04:30.167Z,64.00
2018-08-20T15:07:04.174Z,63.70
2018-08-20T15:09:33.004Z,62.50
2018-08-20T15:12:01.783Z,62.50
2018-08-20T15:14:30.578Z,63.30
2018-08-20T15:17:00.254Z,63.00
2018-08-20T15:19:32.884Z,63.50
2018-08-20T15:22:06.017Z,63.50
2018-08-20T15:24:37.393Z,64.10
2018-08-20T15:27:08.284Z,64.10
2018-08-20T15:29:39.464Z,62.10
2018-08-20T15:32:10.931Z,63.50
2018-08-20T15:34:41.963Z,64.50
2018-08-20T15:37:13.926Z,63.30
